»·PEaware :: AWE2313 KEGE-KBIL

AWE2313 :: KEGE-KBIL

FLIGHT INFORMATION

Flight Status: Arrived
Operator:
US Airways
More flights by this operator :: More flights under this callsign
Pilot: Walter P. (10403)
Aircraft: BOEING 737-200
(B732)
More flights by this aircraft type
Origin: KEGE Eagle Co Regl
United States
Destination: KBIL Billings Logan Intl
United States
More flights between these airports :: More routes between these airports
Route: +GYPSM6 RLG CHE J163 OCS BOY BIL
File this flight plan on PilotEdge
Remarks:
Altitude:
(Current/Filed)
300ft
Speed:
(Current/Filed)
440kts
Departed: 11-Oct-18 05:03 PM
Arrived: 11-Oct-18 06:21 PM
Distance/Time
Traveled:
377nm/1:18
Distance/Time
To Go:
Arrived

Flight Plot

Page will automatically refresh every two minutes.

Flight plan parsing failed; only flown route is shown


Map Options




Map Legend


Flown Route
Filed Route
Departure Airport
Arrival Airport
Navaid (VOR, NDB)
Fix

Horizontal Profiles

Position Reports

Time Latitude Longitude Heading Altitude Ground
Speed
11-Oct-18 16:41 39.640830 -106.913606 172 6554ft 0kts
11-Oct-18 16:42 39.640830 -106.913606 172 6554ft 0kts
11-Oct-18 16:43 39.640830 -106.913606 172 6554ft 0kts
11-Oct-18 16:44 39.640830 -106.913606 172 6554ft 0kts
11-Oct-18 16:45 39.640830 -106.913606 172 6554ft 0kts
11-Oct-18 16:46 39.640830 -106.913606 172 6554ft 0kts
11-Oct-18 16:47 39.640830 -106.913606 172 6554ft 0kts
11-Oct-18 16:48 39.640830 -106.913606 172 6554ft 0kts
11-Oct-18 16:49 39.640830 -106.913606 172 6554ft 0kts
11-Oct-18 16:50 39.640830 -106.913606 172 6554ft 0kts
11-Oct-18 16:51 39.640830 -106.913606 172 6554ft 0kts
11-Oct-18 16:52 39.640830 -106.913606 172 6554ft 0kts
11-Oct-18 16:53 39.640830 -106.913606 172 6554ft 0kts
11-Oct-18 16:54 39.640830 -106.913606 172 6554ft 0kts
11-Oct-18 16:55 39.640830 -106.913606 172 6554ft 0kts
11-Oct-18 16:56 39.640886 -106.913615 168 6554ft 2kts
11-Oct-18 16:57 39.641271 -106.914143 99 6554ft 2kts
11-Oct-18 16:58 39.641269 -106.914395 78 6554ft 0kts
11-Oct-18 16:59 39.641269 -106.914395 78 6554ft 0kts
11-Oct-18 17:00 39.641269 -106.914395 78 6554ft 0kts
11-Oct-18 17:01 39.641269 -106.914395 78 6554ft 0kts
11-Oct-18 17:02 39.641270 -106.914393 78 6554ft 0kts
11-Oct-18 17:03 39.642326 -106.911223 84 6554ft 22kts
11-Oct-18 17:04 39.643486 -106.901966 26 6554ft 14kts
11-Oct-18 17:05 39.643071 -106.914355 261 6554ft 119kts
11-Oct-18 17:06 39.627268 -106.967290 234 8101ft 181kts
11-Oct-18 17:07 39.612014 -107.027071 326 9935ft 205kts
11-Oct-18 17:08 39.668007 -107.045548 331 12036ft 215kts
11-Oct-18 17:09 39.725152 -107.085943 332 13294ft 270kts
11-Oct-18 17:10 39.787809 -107.055018 68 15265ft 294kts
11-Oct-18 17:11 39.819606 -106.955502 68 17490ft 306kts
11-Oct-18 17:12 39.857005 -106.848260 67 18872ft 341kts
11-Oct-18 17:13 39.897421 -106.735477 66 20753ft 351kts
11-Oct-18 17:14 39.939099 -106.618695 66 22385ft 361kts
11-Oct-18 17:15 39.994159 -106.510558 26 23793ft 375kts
11-Oct-18 17:16 40.085970 -106.536869 301 25037ft 359kts
11-Oct-18 17:17 40.133953 -106.650117 299 25895ft 375kts
11-Oct-18 17:18 40.194356 -106.761679 295 26962ft 378kts
11-Oct-18 17:19 40.252347 -106.876946 303 27982ft 385kts
11-Oct-18 17:20 40.319891 -106.986517 305 29028ft 386kts
11-Oct-18 17:21 40.389037 -107.094408 306 29796ft 392kts
11-Oct-18 17:22 40.460241 -107.204997 306 30108ft 407kts
11-Oct-18 17:23 40.534849 -107.321069 306 30106ft 427kts
11-Oct-18 17:24 40.612597 -107.442419 306 30083ft 442kts
11-Oct-18 17:25 40.691204 -107.565605 306 30072ft 437kts
11-Oct-18 17:26 40.767427 -107.686393 305 30077ft 430kts
11-Oct-18 17:27 40.842670 -107.806774 305 30078ft 428kts
11-Oct-18 17:28 40.918500 -107.927149 306 30078ft 428kts
11-Oct-18 17:29 40.994468 -108.048353 306 30078ft 429kts
11-Oct-18 17:30 41.070337 -108.169739 306 30078ft 429kts
11-Oct-18 17:31 41.143736 -108.286395 306 30072ft 430kts
11-Oct-18 17:32 41.219662 -108.408148 306 30072ft 431kts
11-Oct-18 17:33 41.295496 -108.530820 306 30045ft 432kts
11-Oct-18 17:34 41.370094 -108.652061 305 30045ft 432kts
11-Oct-18 17:35 41.445397 -108.774596 305 30049ft 433kts
11-Oct-18 17:36 41.521691 -108.898672 305 30049ft 434kts
11-Oct-18 17:37 41.598172 -109.022633 306 30049ft 434kts
11-Oct-18 17:38 41.697039 -109.107210 356 30056ft 452kts
11-Oct-18 17:39 41.817736 -109.059237 18 30050ft 458kts
11-Oct-18 17:40 41.937838 -109.004179 17 30050ft 459kts
11-Oct-18 17:41 42.058689 -108.949576 17 30051ft 460kts
11-Oct-18 17:42 42.177512 -108.896111 15 30047ft 460kts
11-Oct-18 17:43 42.297490 -108.841909 15 29974ft 464kts
11-Oct-18 17:44 42.388789 -108.800216 15 29968ft 464kts
11-Oct-18 17:45 42.521590 -108.739361 16 29969ft 465kts
11-Oct-18 17:46 42.623412 -108.692575 16 29969ft 466kts
11-Oct-18 17:47 42.766065 -108.626716 16 29971ft 466kts
11-Oct-18 17:48 42.868526 -108.579281 15 29995ft 466kts
11-Oct-18 17:49 43.011090 -108.512871 15 30000ft 467kts
11-Oct-18 17:50 43.112616 -108.465521 15 29997ft 468kts
11-Oct-18 17:51 43.254092 -108.397889 18 29997ft 469kts
11-Oct-18 17:52 43.371732 -108.333008 20 29991ft 469kts
11-Oct-18 17:53 43.470702 -108.276641 20 30052ft 467kts
11-Oct-18 17:54 43.613517 -108.215328 359 30077ft 458kts
11-Oct-18 17:55 43.718209 -108.221620 350 30075ft 454kts
11-Oct-18 17:56 43.842459 -108.242133 349 30077ft 448kts
11-Oct-18 17:57 43.964424 -108.264598 349 30070ft 440kts
11-Oct-18 17:58 44.084647 -108.287242 349 30068ft 433kts
11-Oct-18 17:59 44.198396 -108.308546 349 30072ft 420kts
11-Oct-18 18:00 44.312353 -108.330184 348 29912ft 406kts
11-Oct-18 18:01 44.422801 -108.351292 348 27168ft 404kts
11-Oct-18 18:02 44.532187 -108.372377 348 24941ft 389kts
11-Oct-18 18:03 44.635905 -108.392370 348 24045ft 362kts
11-Oct-18 18:04 44.738973 -108.412370 349 21639ft 375kts
11-Oct-18 18:05 44.857134 -108.435292 349 19312ft 364kts
11-Oct-18 18:06 44.939544 -108.451370 349 17724ft 357kts
11-Oct-18 18:07 45.036348 -108.470395 349 16011ft 344kts
11-Oct-18 18:08 45.129327 -108.488561 349 15971ft 344kts
11-Oct-18 18:09 45.221361 -108.506566 349 14081ft 334kts
11-Oct-18 18:10 45.311468 -108.526257 349 11496ft 326kts
11-Oct-18 18:11 45.397539 -108.548323 349 10462ft 293kts
11-Oct-18 18:12 45.472876 -108.568120 350 8935ft 277kts
11-Oct-18 18:13 45.559231 -108.592570 349 7995ft 268kts
11-Oct-18 18:14 45.621591 -108.609620 349 7838ft 266kts
11-Oct-18 18:15 45.694381 -108.629360 350 6701ft 265kts
11-Oct-18 18:16 45.742454 -108.694507 300 5983ft 247kts
11-Oct-18 18:17 45.776868 -108.776777 300 5995ft 244kts
11-Oct-18 18:18 45.832232 -108.818052 1 5998ft 248kts
11-Oct-18 18:19 45.864593 -108.748262 93 5496ft 234kts
11-Oct-18 18:20 45.845248 -108.672274 106 5164ft 169kts
11-Oct-18 18:21 45.829796 -108.617122 110 4611ft 139kts
11-Oct-18 18:22 45.815738 -108.565784 111 3868ft 133kts
11-Oct-18 18:23 45.805914 -108.530368 110 3660ft 21kts
11-Oct-18 18:24 45.804832 -108.533342 284 3660ft 21kts
11-Oct-18 18:25 45.804395 -108.537776 133 3660ft 9kts
11-Oct-18 18:26 45.804208 -108.537650 175 3660ft 0kts

Navigation Log

Ident Type
Flight plan parsing failed, navigation log unavailable